METAR UND TAF INFORMATION
LTFM 241750Z 07012KT CAVOK 26/21 Q1015 NOSIG

 FLUGHAFENKARTE

 RUNWAY INFORMATION

 AIRPORT FREQUENCIES

 AIRPORT NEAR NAVIGATION AIDS